sensor_id;sensor_type;location;lat;lon;timestamp;pressure;altitude;pressure_sealevel;temperature;humidity
54600;BME280;40500;51.084;16.958;2023-05-07T00:00:21;100732.86;;;8.07;100.00
54600;BME280;40500;51.084;16.958;2023-05-07T00:02:51;100736.52;;;8.09;100.00
54600;BME280;40500;51.084;16.958;2023-05-07T00:05:22;100731.11;;;8.10;100.00
54600;BME280;40500;51.084;16.958;2023-05-07T00:07:53;100736.69;;;8.10;100.00
54600;BME280;40500;51.084;16.958;2023-05-07T00:10:27;100737.21;;;8.11;100.00
54600;BME280;40500;51.084;16.958;2023-05-07T00:12:57;100733.90;;;8.11;100.00
54600;BME280;40500;51.084;16.958;2023-05-07T00:15:28;100735.29;;;8.10;100.00
54600;BME280;40500;51.084;16.958;2023-05-07T00:17:58;100743.84;;;8.11;100.00
54600;BME280;40500;51.084;16.958;2023-05-07T00:20:29;100733.20;;;8.11;100.00
54600;BME280;40500;51.084;16.958;2023-05-07T00:22:59;100738.26;;;8.13;100.00
54600;BME280;40500;51.084;16.958;2023-05-07T00:25:30;100742.27;;;8.13;100.00
54600;BME280;40500;51.084;16.958;2023-05-07T00:28:00;100735.82;;;8.13;100.00
54600;BME280;40500;51.084;16.958;2023-05-07T00:30:33;100737.56;;;8.14;100.00
54600;BME280;40500;51.084;16.958;2023-05-07T00:33:03;100739.66;;;8.13;100.00
54600;BME280;40500;51.084;16.958;2023-05-07T00:35:35;100741.05;;;8.13;100.00
54600;BME280;40500;51.084;16.958;2023-05-07T00:38:06;100738.78;;;8.13;100.00
54600;BME280;40500;51.084;16.958;2023-05-07T00:40:36;100740.36;;;8.11;100.00
54600;BME280;40500;51.084;16.958;2023-05-07T00:43:06;100746.11;;;8.12;100.00
54600;BME280;40500;51.084;16.958;2023-05-07T00:45:38;100748.73;;;8.10;100.00
54600;BME280;40500;51.084;16.958;2023-05-07T00:48:09;100746.63;;;8.09;100.00
54600;BME280;40500;51.084;16.958;2023-05-07T00:50:39;100749.95;;;8.10;100.00
54600;BME280;40500;51.084;16.958;2023-05-07T00:53:10;100751.01;;;8.10;100.00
54600;BME280;40500;51.084;16.958;2023-05-07T00:55:41;100750.14;;;8.12;100.00
54600;BME280;40500;51.084;16.958;2023-05-07T00:58:11;100749.44;;;8.12;100.00
54600;BME280;40500;51.084;16.958;2023-05-07T01:00:42;100748.73;;;8.12;100.00
54600;BME280;40500;51.084;16.958;2023-05-07T01:03:13;100752.58;;;8.11;100.00
54600;BME280;40500;51.084;16.958;2023-05-07T01:05:44;100751.34;;;8.10;100.00
54600;BME280;40500;51.084;16.958;2023-05-07T01:08:16;100753.61;;;8.09;100.00
54600;BME280;40500;51.084;16.958;2023-05-07T01:10:48;100754.31;;;8.06;100.00
54600;BME280;40500;51.084;16.958;2023-05-07T01:13:19;100757.64;;;8.04;100.00
54600;BME280;40500;51.084;16.958;2023-05-07T01:15:51;100758.67;;;8.06;100.00
54600;BME280;40500;51.084;16.958;2023-05-07T01:18:21;100761.10;;;8.07;100.00
54600;BME280;40500;51.084;16.958;2023-05-07T01:20:52;100757.27;;;8.08;100.00
54600;BME280;40500;51.084;16.958;2023-05-07T01:23:25;100749.27;;;8.06;100.00
54600;BME280;40500;51.084;16.958;2023-05-07T01:25:57;100751.86;;;8.05;100.00
54600;BME280;40500;51.084;16.958;2023-05-07T01:28:28;100751.53;;;8.06;100.00
54600;BME280;40500;51.084;16.958;2023-05-07T01:31:02;100752.92;;;8.07;100.00
54600;BME280;40500;51.084;16.958;2023-05-07T01:33:35;100751.00;;;8.08;100.00
54600;BME280;40500;51.084;16.958;2023-05-07T01:36:09;100755.02;;;8.10;100.00
54600;BME280;40500;51.084;16.958;2023-05-07T01:38:41;100756.41;;;8.10;100.00
54600;BME280;40500;51.084;16.958;2023-05-07T01:41:12;100754.31;;;8.09;100.00
54600;BME280;40500;51.084;16.958;2023-05-07T01:43:43;100755.52;;;8.08;100.00
54600;BME280;40500;51.084;16.958;2023-05-07T01:46:16;100757.45;;;8.08;100.00
54600;BME280;40500;51.084;16.958;2023-05-07T01:48:48;100759.54;;;8.09;100.00
54600;BME280;40500;51.084;16.958;2023-05-07T01:51:19;100756.92;;;8.08;100.00
54600;BME280;40500;51.084;16.958;2023-05-07T01:53:53;100754.84;;;8.06;100.00
54600;BME280;40500;51.084;16.958;2023-05-07T01:56:25;100759.89;;;8.05;100.00
54600;BME280;40500;51.084;16.958;2023-05-07T01:58:56;100764.42;;;8.02;100.00
54600;BME280;40500;51.084;16.958;2023-05-07T02:01:27;100764.25;;;8.02;100.00
54600;BME280;40500;51.084;16.958;2023-05-07T02:03:57;100761.46;;;8.02;100.00
54600;BME280;40500;51.084;16.958;2023-05-07T02:06:29;100760.94;;;8.01;100.00
54600;BME280;40500;51.084;16.958;2023-05-07T02:09:05;100764.08;;;8.01;100.00
54600;BME280;40500;51.084;16.958;2023-05-07T02:11:35;100764.60;;;8.01;100.00
54600;BME280;40500;51.084;16.958;2023-05-07T02:14:06;100772.10;;;8.02;100.00
54600;BME280;40500;51.084;16.958;2023-05-07T02:16:36;100775.58;;;8.03;100.00
54600;BME280;40500;51.084;16.958;2023-05-07T02:19:07;100770.89;;;8.00;100.00
54600;BME280;40500;51.084;16.958;2023-05-07T02:21:37;100769.66;;;7.97;100.00
54600;BME280;40500;51.084;16.958;2023-05-07T02:24:08;100766.86;;;7.95;100.00
54600;BME280;40500;51.084;16.958;2023-05-07T02:26:39;100770.36;;;7.95;100.00
54600;BME280;40500;51.084;16.958;2023-05-07T02:29:09;100768.42;;;7.96;100.00
54600;BME280;40500;51.084;16.958;2023-05-07T02:31:40;100769.30;;;7.95;100.00
54600;BME280;40500;51.084;16.958;2023-05-07T02:34:12;100771.05;;;7.93;100.00
54600;BME280;40500;51.084;16.958;2023-05-07T02:36:42;100771.75;;;7.91;100.00
54600;BME280;40500;51.084;16.958;2023-05-07T02:39:14;100772.97;;;7.91;100.00
54600;BME280;40500;51.084;16.958;2023-05-07T02:41:45;100775.75;;;7.91;100.00
54600;BME280;40500;51.084;16.958;2023-05-07T02:44:15;100774.02;;;7.90;100.00
54600;BME280;40500;51.084;16.958;2023-05-07T02:46:47;100778.02;;;7.92;100.00
54600;BME280;40500;51.084;16.958;2023-05-07T02:49:18;100781.67;;;7.91;100.00
54600;BME280;40500;51.084;16.958;2023-05-07T02:51:48;100780.98;;;7.89;100.00
54600;BME280;40500;51.084;16.958;2023-05-07T02:54:22;100781.34;;;7.87;100.00
54600;BME280;40500;51.084;16.958;2023-05-07T02:56:52;100789.86;;;7.85;100.00
54600;BME280;40500;51.084;16.958;2023-05-07T02:59:22;100788.13;;;7.84;100.00
54600;BME280;40500;51.084;16.958;2023-05-07T03:01:54;100782.89;;;7.86;100.00
54600;BME280;40500;51.084;16.958;2023-05-07T03:04:25;100786.02;;;7.86;100.00
54600;BME280;40500;51.084;16.958;2023-05-07T03:06:55;100787.79;;;7.86;100.00
54600;BME280;40500;51.084;16.958;2023-05-07T03:09:25;100788.30;;;7.85;100.00
54600;BME280;40500;51.084;16.958;2023-05-07T03:11:57;100791.27;;;7.88;100.00
54600;BME280;40500;51.084;16.958;2023-05-07T03:14:28;100794.40;;;7.87;100.00
54600;BME280;40500;51.084;16.958;2023-05-07T03:16:58;100796.68;;;7.87;100.00
54600;BME280;40500;51.084;16.958;2023-05-07T03:19:28;100799.83;;;7.88;100.00
54600;BME280;40500;51.084;16.958;2023-05-07T03:22:00;100797.02;;;7.88;100.00
54600;BME280;40500;51.084;16.958;2023-05-07T03:24:30;100801.04;;;7.88;100.00
54600;BME280;40500;51.084;16.958;2023-05-07T03:27:00;100803.30;;;7.86;100.00
54600;BME280;40500;51.084;16.958;2023-05-07T03:29:31;100804.87;;;7.86;100.00
54600;BME280;40500;51.084;16.958;2023-05-07T03:32:02;100809.58;;;7.85;100.00
54600;BME280;40500;51.084;16.958;2023-05-07T03:34:33;100808.36;;;7.85;100.00
54600;BME280;40500;51.084;16.958;2023-05-07T03:37:03;100808.53;;;7.83;100.00
54600;BME280;40500;51.084;16.958;2023-05-07T03:39:34;100809.91;;;7.83;100.00
54600;BME280;40500;51.084;16.958;2023-05-07T03:42:05;100810.27;;;7.83;100.00
54600;BME280;40500;51.084;16.958;2023-05-07T03:44:36;100815.31;;;7.82;100.00
54600;BME280;40500;51.084;16.958;2023-05-07T03:47:06;100818.28;;;7.81;100.00
54600;BME280;40500;51.084;16.958;2023-05-07T03:49:37;100822.11;;;7.82;100.00
54600;BME280;40500;51.084;16.958;2023-05-07T03:52:08;100824.91;;;7.80;100.00
54600;BME280;40500;51.084;16.958;2023-05-07T03:54:39;100832.23;;;7.79;100.00
54600;BME280;40500;51.084;16.958;2023-05-07T03:57:09;100837.81;;;7.79;100.00
54600;BME280;40500;51.084;16.958;2023-05-07T03:59:39;100837.80;;;7.77;100.00
54600;BME280;40500;51.084;16.958;2023-05-07T04:02:10;100842.66;;;7.77;100.00
54600;BME280;40500;51.084;16.958;2023-05-07T04:04:40;100846.52;;;7.77;100.00
54600;BME280;40500;51.084;16.958;2023-05-07T04:07:11;100847.05;;;7.78;100.00
54600;BME280;40500;51.084;16.958;2023-05-07T04:09:43;100848.09;;;7.77;100.00
54600;BME280;40500;51.084;16.958;2023-05-07T04:12:14;100850.36;;;7.79;100.00
54600;BME280;40500;51.084;16.958;2023-05-07T04:14:45;100853.33;;;7.80;100.00
54600;BME280;40500;51.084;16.958;2023-05-07T04:17:17;100859.25;;;7.80;100.00
54600;BME280;40500;51.084;16.958;2023-05-07T04:19:47;100859.96;;;7.80;100.00
54600;BME280;40500;51.084;16.958;2023-05-07T04:22:18;100863.43;;;7.81;100.00
54600;BME280;40500;51.084;16.958;2023-05-07T04:24:49;100863.44;;;7.79;100.00
54600;BME280;40500;51.084;16.958;2023-05-07T04:27:19;100870.92;;;7.79;100.00
54600;BME280;40500;51.084;16.958;2023-05-07T04:29:50;100870.23;;;7.79;100.00
54600;BME280;40500;51.084;16.958;2023-05-07T04:32:25;100878.44;;;7.79;100.00
54600;BME280;40500;51.084;16.958;2023-05-07T04:34:55;100881.21;;;7.80;100.00
54600;BME280;40500;51.084;16.958;2023-05-07T04:37:26;100883.82;;;7.81;100.00
54600;BME280;40500;51.084;16.958;2023-05-07T04:39:57;100881.74;;;7.81;100.00
54600;BME280;40500;51.084;16.958;2023-05-07T04:42:27;100890.29;;;7.82;100.00
54600;BME280;40500;51.084;16.958;2023-05-07T04:44:59;100884.88;;;7.79;100.00
54600;BME280;40500;51.084;16.958;2023-05-07T04:47:31;100890.11;;;7.80;100.00
54600;BME280;40500;51.084;16.958;2023-05-07T04:50:03;100892.57;;;7.81;100.00
54600;BME280;40500;51.084;16.958;2023-05-07T04:52:33;100897.27;;;7.80;100.00
54600;BME280;40500;51.084;16.958;2023-05-07T04:55:06;100899.70;;;7.81;100.00
54600;BME280;40500;51.084;16.958;2023-05-07T04:57:39;100901.27;;;7.82;100.00
54600;BME280;40500;51.084;16.958;2023-05-07T05:00:13;100901.11;;;7.83;100.00
54600;BME280;40500;51.084;16.958;2023-05-07T05:02:45;100903.73;;;7.88;100.00
54600;BME280;40500;51.084;16.958;2023-05-07T05:05:18;100903.22;;;7.93;100.00
54600;BME280;40500;51.084;16.958;2023-05-07T05:07:49;100912.31;;;7.98;100.00
54600;BME280;40500;51.084;16.958;2023-05-07T05:10:21;100915.11;;;8.02;100.00
54600;BME280;40500;51.084;16.958;2023-05-07T05:12:53;100921.05;;;8.06;100.00
54600;BME280;40500;51.084;16.958;2023-05-07T05:15:24;100918.09;;;8.09;100.00
54600;BME280;40500;51.084;16.958;2023-05-07T05:17:54;100923.16;;;8.12;100.00
54600;BME280;40500;51.084;16.958;2023-05-07T05:20:25;100927.88;;;8.14;100.00
54600;BME280;40500;51.084;16.958;2023-05-07T05:22:55;100928.41;;;8.15;100.00
54600;BME280;40500;51.084;16.958;2023-05-07T05:25:25;100935.02;;;8.14;100.00
54600;BME280;40500;51.084;16.958;2023-05-07T05:27:57;100937.30;;;8.16;100.00
54600;BME280;40500;51.084;16.958;2023-05-07T05:30:28;100932.94;;;8.19;100.00
54600;BME280;40500;51.084;16.958;2023-05-07T05:32:58;100938.55;;;8.21;100.00
54600;BME280;40500;51.084;16.958;2023-05-07T05:35:30;100937.14;;;8.24;100.00
54600;BME280;40500;51.084;16.958;2023-05-07T05:38:04;100936.80;;;8.24;100.00
54600;BME280;40500;51.084;16.958;2023-05-07T05:40:35;100935.74;;;8.24;100.00
54600;BME280;40500;51.084;16.958;2023-05-07T05:43:05;100935.06;;;8.28;100.00
54600;BME280;40500;51.084;16.958;2023-05-07T05:45:38;100934.02;;;8.35;100.00
54600;BME280;40500;51.084;16.958;2023-05-07T05:48:09;100936.48;;;8.39;100.00
54600;BME280;40500;51.084;16.958;2023-05-07T05:50:39;100935.29;;;8.41;100.00
54600;BME280;40500;51.084;16.958;2023-05-07T05:53:10;100939.31;;;8.43;100.00
54600;BME280;40500;51.084;16.958;2023-05-07T05:55:41;100941.76;;;8.43;100.00
54600;BME280;40500;51.084;16.958;2023-05-07T05:58:13;100942.11;;;8.43;100.00
54600;BME280;40500;51.084;16.958;2023-05-07T06:00:51;100943.69;;;8.48;100.00
54600;BME280;40500;51.084;16.958;2023-05-07T06:03:24;100948.40;;;8.54;100.00
54600;BME280;40500;51.084;16.958;2023-05-07T06:05:56;100952.41;;;8.56;100.00
54600;BME280;40500;51.084;16.958;2023-05-07T06:08:31;100951.89;;;8.59;100.00
54600;BME280;40500;51.084;16.958;2023-05-07T06:11:03;100949.46;;;8.66;100.00
54600;BME280;40500;51.084;16.958;2023-05-07T06:13:35;100952.77;;;8.74;100.00
54600;BME280;40500;51.084;16.958;2023-05-07T06:16:07;100954.18;;;8.78;100.00
54600;BME280;40500;51.084;16.958;2023-05-07T06:18:37;100951.91;;;8.80;100.00
54600;BME280;40500;51.084;16.958;2023-05-07T06:21:09;100951.39;;;8.85;100.00
54600;BME280;40500;51.084;16.958;2023-05-07T06:23:40;100954.52;;;8.98;100.00
54600;BME280;40500;51.084;16.958;2023-05-07T06:26:10;100951.90;;;9.12;100.00
54600;BME280;40500;51.084;16.958;2023-05-07T06:28:43;100954.15;;;9.19;100.00
54600;BME280;40500;51.084;16.958;2023-05-07T06:31:18;100964.65;;;9.17;100.00
54600;BME280;40500;51.084;16.958;2023-05-07T06:33:55;100969.20;;;9.04;100.00
54600;BME280;40500;51.084;16.958;2023-05-07T06:36:28;100974.44;;;8.98;100.00
54600;BME280;40500;51.084;16.958;2023-05-07T06:38:59;100981.77;;;8.94;100.00
54600;BME280;40500;51.084;16.958;2023-05-07T06:41:30;100987.19;;;8.96;100.00
54600;BME280;40500;51.084;16.958;2023-05-07T06:44:05;100989.11;;;8.98;100.00
54600;BME280;40500;51.084;16.958;2023-05-07T06:46:41;100990.86;;;9.00;100.00
54600;BME280;40500;51.084;16.958;2023-05-07T06:49:13;100991.20;;;8.96;100.00
54600;BME280;40500;51.084;16.958;2023-05-07T06:51:44;100988.95;;;8.91;100.00
54600;BME280;40500;51.084;16.958;2023-05-07T06:54:15;100991.55;;;8.89;100.00
54600;BME280;40500;51.084;16.958;2023-05-07T06:56:45;100993.30;;;8.92;100.00
54600;BME280;40500;51.084;16.958;2023-05-07T06:59:16;100998.36;;;8.95;100.00
54600;BME280;40500;51.084;16.958;2023-05-07T07:01:46;100998.38;;;8.97;100.00
54600;BME280;40500;51.084;16.958;2023-05-07T07:04:17;100999.95;;;9.00;100.00
54600;BME280;40500;51.084;16.958;2023-05-07T07:06:53;101004.14;;;9.01;100.00
54600;BME280;40500;51.084;16.958;2023-05-07T07:09:24;101002.56;;;8.95;100.00
54600;BME280;40500;51.084;16.958;2023-05-07T07:11:55;101007.10;;;8.85;100.00
54600;BME280;40500;51.084;16.958;2023-05-07T07:14:26;101010.42;;;8.85;100.00
54600;BME280;40500;51.084;16.958;2023-05-07T07:16:56;101009.02;;;8.91;100.00
54600;BME280;40500;51.084;16.958;2023-05-07T07:19:27;101013.20;;;8.95;100.00
54600;BME280;40500;51.084;16.958;2023-05-07T07:21:57;101013.74;;;8.94;100.00
54600;BME280;40500;51.084;16.958;2023-05-07T07:24:31;101021.42;;;8.93;100.00
54600;BME280;40500;51.084;16.958;2023-05-07T07:27:03;101023.70;;;8.97;100.00
54600;BME280;40500;51.084;16.958;2023-05-07T07:29:35;101020.73;;;8.95;100.00
54600;BME280;40500;51.084;16.958;2023-05-07T07:32:06;101025.80;;;8.89;100.00
54600;BME280;40500;51.084;16.958;2023-05-07T07:34:36;101033.48;;;8.87;100.00
54600;BME280;40500;51.084;16.958;2023-05-07T07:37:07;101034.17;;;8.92;100.00
54600;BME280;40500;51.084;16.958;2023-05-07T07:39:38;101034.19;;;9.02;100.00
54600;BME280;40500;51.084;16.958;2023-05-07T07:42:09;101037.52;;;9.14;100.00
54600;BME280;40500;51.084;16.958;2023-05-07T07:44:40;101039.42;;;9.26;100.00
54600;BME280;40500;51.084;16.958;2023-05-07T07:47:11;101041.52;;;9.38;100.00
54600;BME280;40500;51.084;16.958;2023-05-07T07:49:42;101039.75;;;9.52;100.00
54600;BME280;40500;51.084;16.958;2023-05-07T07:52:12;101040.45;;;9.58;100.00
54600;BME280;40500;51.084;16.958;2023-05-07T07:54:44;101042.02;;;9.61;100.00
54600;BME280;40500;51.084;16.958;2023-05-07T07:57:14;101039.91;;;9.62;100.00
54600;BME280;40500;51.084;16.958;2023-05-07T07:59:44;101043.07;;;9.59;100.00
54600;BME280;40500;51.084;16.958;2023-05-07T08:02:16;101045.52;;;9.55;100.00
54600;BME280;40500;51.084;16.958;2023-05-07T08:04:47;101044.65;;;9.57;100.00
54600;BME280;40500;51.084;16.958;2023-05-07T08:07:17;101043.25;;;9.57;100.00
54600;BME280;40500;51.084;16.958;2023-05-07T08:09:49;101044.48;;;9.53;100.00
54600;BME280;40500;51.084;16.958;2023-05-07T08:12:22;101054.10;;;9.47;100.00
54600;BME280;40500;51.084;16.958;2023-05-07T08:14:53;101054.28;;;9.37;100.00
54600;BME280;40500;51.084;16.958;2023-05-07T08:17:23;101058.64;;;9.26;100.00
54600;BME280;40500;51.084;16.958;2023-05-07T08:19:55;101054.64;;;9.23;100.00
54600;BME280;40500;51.084;16.958;2023-05-07T08:22:25;101061.63;;;9.22;100.00
54600;BME280;40500;51.084;16.958;2023-05-07T08:24:56;101064.59;;;9.24;100.00
54600;BME280;40500;51.084;16.958;2023-05-07T08:27:26;101070.19;;;9.22;100.00
54600;BME280;40500;51.084;16.958;2023-05-07T08:29:57;101073.16;;;9.19;100.00
54600;BME280;40500;51.084;16.958;2023-05-07T08:32:27;101077.35;;;9.16;100.00
54600;BME280;40500;51.084;16.958;2023-05-07T08:34:58;101081.54;;;9.12;100.00
54600;BME280;40500;51.084;16.958;2023-05-07T08:37:28;101084.34;;;9.11;100.00
54600;BME280;40500;51.084;16.958;2023-05-07T08:40:00;101086.09;;;9.11;100.00
54600;BME280;40500;51.084;16.958;2023-05-07T08:42:36;101087.13;;;9.14;100.00
54600;BME280;40500;51.084;16.958;2023-05-07T08:45:10;101085.20;;;9.17;100.00
54600;BME280;40500;51.084;16.958;2023-05-07T08:47:46;101091.86;;;9.19;100.00
54600;BME280;40500;51.084;16.958;2023-05-07T08:50:18;101094.83;;;9.22;100.00
54600;BME280;40500;51.084;16.958;2023-05-07T08:52:50;101098.85;;;9.25;100.00
54600;BME280;40500;51.084;16.958;2023-05-07T08:55:22;101100.24;;;9.29;100.00
54600;BME280;40500;51.084;16.958;2023-05-07T08:57:53;101105.16;;;9.33;100.00
54600;BME280;40500;51.084;16.958;2023-05-07T09:00:24;101106.71;;;9.38;100.00
54600;BME280;40500;51.084;16.958;2023-05-07T09:02:55;101106.03;;;9.43;100.00
54600;BME280;40500;51.084;16.958;2023-05-07T09:05:27;101107.07;;;9.42;100.00
54600;BME280;40500;51.084;16.958;2023-05-07T09:08:00;101107.77;;;9.40;100.00
54600;BME280;40500;51.084;16.958;2023-05-07T09:10:33;101111.63;;;9.38;100.00
54600;BME280;40500;51.084;16.958;2023-05-07T09:13:05;101113.02;;;9.33;100.00
54600;BME280;40500;51.084;16.958;2023-05-07T09:15:36;101111.77;;;9.27;100.00
54600;BME280;40500;51.084;16.958;2023-05-07T09:18:06;101113.70;;;9.23;100.00
54600;BME280;40500;51.084;16.958;2023-05-07T09:20:39;101116.50;;;9.21;100.00
54600;BME280;40500;51.084;16.958;2023-05-07T09:23:10;101112.99;;;9.23;100.00
54600;BME280;40500;51.084;16.958;2023-05-07T09:25:41;101114.91;;;9.24;100.00
54600;BME280;40500;51.084;16.958;2023-05-07T09:28:17;101112.31;;;9.29;100.00
54600;BME280;40500;51.084;16.958;2023-05-07T09:30:47;101116.51;;;9.35;100.00
54600;BME280;40500;51.084;16.958;2023-05-07T09:33:18;101117.73;;;9.41;100.00
54600;BME280;40500;51.084;16.958;2023-05-07T09:35:53;101115.46;;;9.49;100.00
54600;BME280;40500;51.084;16.958;2023-05-07T09:38:24;101112.14;;;9.55;100.00
54600;BME280;40500;51.084;16.958;2023-05-07T09:41:07;101106.02;;;9.58;100.00
54600;BME280;40500;51.084;16.958;2023-05-07T09:43:54;101110.56;;;9.63;100.00
54600;BME280;40500;51.084;16.958;2023-05-07T09:46:31;101106.54;;;9.68;100.00
54600;BME280;40500;51.084;16.958;2023-05-07T09:49:08;101113.00;;;9.69;100.00
54600;BME280;40500;51.084;16.958;2023-05-07T09:51:43;101112.48;;;9.69;100.00
54600;BME280;40500;51.084;16.958;2023-05-07T09:54:18;101119.30;;;9.75;100.00
54600;BME280;40500;51.084;16.958;2023-05-07T09:56:50;101119.64;;;9.79;100.00
54600;BME280;40500;51.084;16.958;2023-05-07T09:59:24;101125.94;;;9.78;100.00
54600;BME280;40500;51.084;16.958;2023-05-07T10:02:01;101131.02;;;9.76;100.00
54600;BME280;40500;51.084;16.958;2023-05-07T10:04:35;101132.41;;;9.77;100.00
54600;BME280;40500;51.084;16.958;2023-05-07T10:07:06;101131.17;;;9.81;100.00
54600;BME280;40500;51.084;16.958;2023-05-07T10:09:38;101131.86;;;10.01;100.00
54600;BME280;40500;51.084;16.958;2023-05-07T10:12:18;101137.95;;;10.21;100.00
54600;BME280;40500;51.084;16.958;2023-05-07T10:14:51;101128.09;;;10.46;100.00
54600;BME280;40500;51.084;16.958;2023-05-07T10:17:24;101132.11;;;10.87;100.00
54600;BME280;40500;51.084;16.958;2023-05-07T10:19:56;101130.83;;;11.24;100.00
54600;BME280;40500;51.084;16.958;2023-05-07T10:22:27;101131.69;;;11.49;100.00
54600;BME280;40500;51.084;16.958;2023-05-07T10:25:00;101131.43;;;11.59;100.00
54600;BME280;40500;51.084;16.958;2023-05-07T10:27:34;101135.12;;;11.59;100.00
54600;BME280;40500;51.084;16.958;2023-05-07T10:30:10;101137.14;;;11.47;100.00
54600;BME280;40500;51.084;16.958;2023-05-07T10:32:45;101134.73;;;11.42;100.00
54600;BME280;40500;51.084;16.958;2023-05-07T10:35:25;101135.82;;;11.36;100.00
54600;BME280;40500;51.084;16.958;2023-05-07T10:37:56;101135.45;;;11.39;100.00
54600;BME280;40500;51.084;16.958;2023-05-07T10:40:28;101137.30;;;11.49;100.00
54600;BME280;40500;51.084;16.958;2023-05-07T10:43:02;101133.95;;;11.51;100.00
54600;BME280;40500;51.084;16.958;2023-05-07T10:45:42;101129.70;;;11.57;100.00
54600;BME280;40500;51.084;16.958;2023-05-07T10:48:15;101126.71;;;11.57;100.00
54600;BME280;40500;51.084;16.958;2023-05-07T10:51:21;101127.90;;;11.40;100.00
54600;BME280;40500;51.084;16.958;2023-05-07T10:54:22;101129.42;;;11.23;100.00
54600;BME280;40500;51.084;16.958;2023-05-07T10:57:34;101129.31;;;11.14;100.00
54600;BME280;40500;51.084;16.958;2023-05-07T11:00:44;101124.30;;;11.03;100.00
54600;BME280;40500;51.084;16.958;2023-05-07T11:03:21;101124.83;;;11.00;100.00
54600;BME280;40500;51.084;16.958;2023-05-07T11:06:15;101122.88;;;11.07;100.00
54600;BME280;40500;51.084;16.958;2023-05-07T11:09:11;101124.94;;;11.13;100.00
54600;BME280;40500;51.084;16.958;2023-05-07T11:11:50;101123.88;;;11.11;100.00
54600;BME280;40500;51.084;16.958;2023-05-07T11:14:44;101130.04;;;11.12;100.00
54600;BME280;40500;51.084;16.958;2023-05-07T11:17:25;101132.98;;;11.17;100.00
54600;BME280;40500;51.084;16.958;2023-05-07T11:20:03;101132.95;;;11.19;100.00
54600;BME280;40500;51.084;16.958;2023-05-07T11:22:39;101137.83;;;11.24;100.00
54600;BME280;40500;51.084;16.958;2023-05-07T11:25:21;101143.06;;;11.28;100.00
54600;BME280;40500;51.084;16.958;2023-05-07T11:28:18;101146.87;;;11.36;100.00
54600;BME280;40500;51.084;16.958;2023-05-07T11:30:57;101144.92;;;11.38;100.00
54600;BME280;40500;51.084;16.958;2023-05-07T11:33:28;101150.83;;;11.47;100.00
54600;BME280;40500;51.084;16.958;2023-05-07T11:36:01;101151.05;;;11.63;100.00
54600;BME280;40500;51.084;16.958;2023-05-07T11:38:37;101152.90;;;11.73;100.00
54600;BME280;40500;51.084;16.958;2023-05-07T11:41:08;101155.67;;;11.76;100.00
54600;BME280;40500;51.084;16.958;2023-05-07T11:43:40;101155.45;;;11.60;100.00
54600;BME280;40500;51.084;16.958;2023-05-07T11:46:24;101161.89;;;11.42;100.00
54600;BME280;40500;51.084;16.958;2023-05-07T11:48:54;101164.08;;;11.33;100.00
54600;BME280;40500;51.084;16.958;2023-05-07T11:51:26;101163.08;;;11.24;100.00
54600;BME280;40500;51.084;16.958;2023-05-07T11:53:56;101163.48;;;11.15;100.00
54600;BME280;40500;51.084;16.958;2023-05-07T11:56:26;101166.52;;;11.10;100.00
54600;BME280;40500;51.084;16.958;2023-05-07T11:58:57;101166.83;;;11.12;100.00
54600;BME280;40500;51.084;16.958;2023-05-07T12:01:27;101164.16;;;11.20;100.00
54600;BME280;40500;51.084;16.958;2023-05-07T12:03:57;101168.30;;;11.29;100.00
54600;BME280;40500;51.084;16.958;2023-05-07T12:06:28;101169.29;;;11.40;100.00
54600;BME280;40500;51.084;16.958;2023-05-07T12:08:59;101166.44;;;11.45;100.00
54600;BME280;40500;51.084;16.958;2023-05-07T12:11:29;101171.17;;;11.45;100.00
54600;BME280;40500;51.084;16.958;2023-05-07T12:13:59;101168.93;;;11.40;100.00
54600;BME280;40500;51.084;16.958;2023-05-07T12:16:30;101172.48;;;11.32;100.00
54600;BME280;40500;51.084;16.958;2023-05-07T12:19:01;101174.09;;;11.31;100.00
54600;BME280;40500;51.084;16.958;2023-05-07T12:21:32;101172.14;;;11.33;100.00
54600;BME280;40500;51.084;16.958;2023-05-07T12:24:04;101171.27;;;11.32;100.00
54600;BME280;40500;51.084;16.958;2023-05-07T12:26:38;101174.79;;;11.32;100.00
54600;BME280;40500;51.084;16.958;2023-05-07T12:29:10;101181.70;;;11.45;100.00
54600;BME280;40500;51.084;16.958;2023-05-07T12:31:43;101184.77;;;11.57;100.00
54600;BME280;40500;51.084;16.958;2023-05-07T12:34:13;101180.13;;;11.67;100.00
54600;BME280;40500;51.084;16.958;2023-05-07T12:36:44;101187.88;;;11.65;100.00
54600;BME280;40500;51.084;16.958;2023-05-07T12:39:14;101187.70;;;11.65;100.00
54600;BME280;40500;51.084;16.958;2023-05-07T12:41:58;101189.45;;;11.65;100.00
54600;BME280;40500;51.084;16.958;2023-05-07T12:44:32;101189.76;;;11.69;100.00
54600;BME280;40500;51.084;16.958;2023-05-07T12:47:03;101192.23;;;11.67;100.00
54600;BME280;40500;51.084;16.958;2023-05-07T12:49:35;101191.25;;;11.60;100.00
54600;BME280;40500;51.084;16.958;2023-05-07T12:52:07;101191.83;;;11.50;100.00
54600;BME280;40500;51.084;16.958;2023-05-07T12:54:39;101188.57;;;11.42;100.00
54600;BME280;40500;51.084;16.958;2023-05-07T12:57:09;101191.38;;;11.41;100.00
54600;BME280;40500;51.084;16.958;2023-05-07T12:59:41;101190.67;;;11.41;100.00
54600;BME280;40500;51.084;16.958;2023-05-07T13:02:11;101197.73;;;11.37;100.00
54600;BME280;40500;51.084;16.958;2023-05-07T13:04:43;101197.23;;;11.29;100.00